Impacts TAF Board INFO
FOR SITUATIONAL AWARENESS. NOT TO BE USED FOR FLIGHT PLANNING PURPOSES.
IDs:

KDEN - Denver Intl, CO, US

Issued at 1141 UTC 20 May 2018
Updated at 1221 UTC 20 May 2018
Potential Impact None Slight Moderate High
Time<<21/01Z 21/02Z 21/03Z 21/04Z 21/05Z 21/06Z 21/07Z 21/08Z 21/09Z 21/10Z 21/11Z 21/12Z 21/13Z>>
Type PRVL PRVL PRVL PRVL PRVL PRVL PRVL PRVL PRVL PRVL PRVL PRVL PRVL
VIS >6 >6 >6 >6 >6 >6 >6 >6 >6 >6 >6 >6 >6
CIG 120 120 120 120 200 200 200 200 200 200 200 200 200
Cover BKN BKN BKN BKN BKN BKN BKN BKN BKN BKN BKN BKN BKN
FltCat VFR VFR VFR VFR VFR VFR VFR VFR VFR VFR VFR VFR VFR
WX -- -- -- -- -- -- -- -- -- -- -- -- --
WDir 130 130 130 130 210 210 210 210 210 210 210 210 210
WSpd 12 12 12 12 9 9 9 9 9 9 9 9 9
WGst -- -- -- -- -- -- -- -- -- -- -- -- --

Raw TAF
KDEN 201141Z 2012/2118 10008KT P6SM FEW004 SCT008 OVC025
  TEMPO 2012/2014 BKN005 OVC020
  FM201500 11007KT P6SM SCT010 BKN025
  FM201700 10008KT P6SM SCT025 BKN040
  FM202000 10010KT P6SM SCT040 BKN070
  FM210000 13012KT P6SM SCT070 BKN120
  FM210500 21009KT P6SM FEW070 BKN200


METAR Board
Radar Display
Forecast Discussion

FOR SITUATIONAL AWARENESS. NOT TO BE USED FOR FLIGHT PLANNING PURPOSES.